Sheridan, Louisiana
Current Conditions -  °F | °C
As of 10:15 PM on Wednesday 22 Oct 2014 (Local Time) from KBXA Reporting Station
NA  
Wind Chill: 55°   Ceiling: NA
Heat Index: 55°   Visibility: 10mi
Dew Point: 50°   Wind: 5mph
Humidity: 85%   Direction: 20°NNE
Pressure: 30.11"   Gusts: NA
Location:  30.8503°N, 90.0561°W
Report Text: KBXA 230315Z AUTO 02004KT 10SM 13/10 A3011 RMK AO2 T01250101
Loading
Personal Weather Stations






























Interactive Weather Map
Tropical Storm Tracking
New forecast layout! Learn more

10-Day Weather Forecast

Advertisements
Track Severe Weather on mobile